createdAt,value
2018-07-19T00:00:25.953Z,3.53
2018-07-19T00:02:54.456Z,3.60
2018-07-19T00:05:22.854Z,4.13
2018-07-19T00:07:51.425Z,4.30
2018-07-19T00:10:19.944Z,4.30
2018-07-19T00:12:48.374Z,4.37
2018-07-19T00:15:16.843Z,3.80
2018-07-19T00:17:45.313Z,4.20
2018-07-19T00:20:13.869Z,4.33
2018-07-19T00:22:42.422Z,4.07
2018-07-19T00:25:10.873Z,4.53
2018-07-19T00:27:39.292Z,4.07
2018-07-19T00:30:07.836Z,4.73
2018-07-19T00:32:36.249Z,4.83
2018-07-19T00:35:04.798Z,4.60
2018-07-19T00:37:33.280Z,4.63
2018-07-19T00:40:01.818Z,5.37
2018-07-19T00:42:30.357Z,5.37
2018-07-19T00:44:58.844Z,5.57
2018-07-19T00:47:27.272Z,5.17
2018-07-19T00:49:55.784Z,5.30
2018-07-19T00:52:24.348Z,5.37
2018-07-19T00:54:52.829Z,5.77
2018-07-19T00:57:21.250Z,5.40
2018-07-19T00:59:49.757Z,5.63
2018-07-19T01:02:18.235Z,5.30
2018-07-19T01:04:46.770Z,5.43
2018-07-19T01:07:15.232Z,5.97
2018-07-19T01:09:43.702Z,5.30
2018-07-19T01:12:12.141Z,6.27
2018-07-19T01:14:40.699Z,6.07
2018-07-19T01:17:09.218Z,6.07
2018-07-19T01:19:37.635Z,5.97
2018-07-19T01:22:06.270Z,5.93
2018-07-19T01:24:34.703Z,6.30
2018-07-19T01:27:03.196Z,6.17
2018-07-19T01:29:31.713Z,5.87
2018-07-19T01:32:00.208Z,6.33
2018-07-19T01:34:28.626Z,6.53
2018-07-19T01:36:57.018Z,6.40
2018-07-19T01:39:25.592Z,7.47
2018-07-19T01:42:33.885Z,6.77
2018-07-19T01:45:02.468Z,6.67
2018-07-19T01:47:31.268Z,6.60
2018-07-19T01:49:59.492Z,7.10
2018-07-19T01:52:28.092Z,7.90
2018-07-19T01:54:56.668Z,6.93
2018-07-19T01:57:25.200Z,7.67
2018-07-19T01:59:54.118Z,7.63
2018-07-19T02:02:23.019Z,7.50
2018-07-19T02:04:51.645Z,7.40
2018-07-19T02:07:20.272Z,8.00
2018-07-19T02:09:48.813Z,7.40
2018-07-19T02:12:17.419Z,8.53
2018-07-19T02:14:45.895Z,8.40
2018-07-19T02:17:14.555Z,8.00
2018-07-19T02:19:43.006Z,8.50
2018-07-19T02:22:11.635Z,8.43
2018-07-19T02:24:40.067Z,8.90
2018-07-19T02:27:08.505Z,8.80
2018-07-19T02:29:36.925Z,8.83
2018-07-19T02:32:05.666Z,8.90
2018-07-19T02:34:34.080Z,9.30
2018-07-19T02:37:02.841Z,9.20
2018-07-19T02:39:31.265Z,10.07
2018-07-19T02:41:59.687Z,10.47
2018-07-19T02:44:28.248Z,10.63
2018-07-19T02:46:56.681Z,10.67
2018-07-19T02:49:25.155Z,11.10
2018-07-19T02:51:53.814Z,10.87
2018-07-19T02:54:22.285Z,10.93
2018-07-19T02:56:51.012Z,10.73
2018-07-19T02:59:20.005Z,10.70
2018-07-19T03:01:48.455Z,11.30
2018-07-19T03:04:16.909Z,11.90
2018-07-19T03:06:45.617Z,11.37
2018-07-19T03:09:14.123Z,11.90
2018-07-19T03:11:42.576Z,12.27
2018-07-19T03:14:11.007Z,11.23
2018-07-19T03:16:39.519Z,12.90
2018-07-19T03:19:08.149Z,12.13
2018-07-19T03:21:36.682Z,13.73
2018-07-19T03:24:05.246Z,13.60
2018-07-19T03:26:34.241Z,13.90
2018-07-19T03:29:03.028Z,15.67
2018-07-19T03:31:31.484Z,14.97
2018-07-19T03:34:00.895Z,14.70
2018-07-19T03:36:29.438Z,14.83
2018-07-19T03:38:58.125Z,14.97
2018-07-19T03:41:26.522Z,15.30
2018-07-19T03:43:55.198Z,14.97
2018-07-19T03:46:23.657Z,15.53
2018-07-19T03:48:52.284Z,15.10
2018-07-19T03:51:20.809Z,14.97
2018-07-19T03:53:49.261Z,14.13
2018-07-19T03:56:17.749Z,14.63
2018-07-19T03:58:46.185Z,14.30
2018-07-19T04:01:15.273Z,14.67
2018-07-19T04:03:44.497Z,14.30
2018-07-19T04:06:12.933Z,14.73
2018-07-19T04:08:41.620Z,14.53
2018-07-19T04:11:10.680Z,15.07
2018-07-19T04:13:39.268Z,15.97
2018-07-19T04:16:08.055Z,15.50
2018-07-19T04:18:36.841Z,15.23
2018-07-19T04:21:05.293Z,15.23
2018-07-19T04:23:33.873Z,14.90
2018-07-19T04:26:02.457Z,15.90
2018-07-19T04:28:31.041Z,15.33
2018-07-19T04:30:59.744Z,14.73
2018-07-19T04:33:28.960Z,15.63
2018-07-19T04:35:57.525Z,15.57
2018-07-19T04:38:26.870Z,15.57
2018-07-19T04:40:56.103Z,13.93
2018-07-19T04:43:24.514Z,14.63
2018-07-19T04:45:52.640Z,14.00
2018-07-19T04:48:21.269Z,13.60
2018-07-19T04:50:49.686Z,13.03
2018-07-19T04:53:18.129Z,14.23
2018-07-19T04:55:46.536Z,13.60
2018-07-19T04:58:14.988Z,12.70
2018-07-19T05:00:43.486Z,12.77
2018-07-19T05:03:11.997Z,12.63
2018-07-19T05:05:40.537Z,12.00
2018-07-19T05:08:09.008Z,12.23
2018-07-19T05:10:37.474Z,12.90
2018-07-19T05:13:06.003Z,11.90
2018-07-19T05:15:34.465Z,11.30
2018-07-19T05:18:03.064Z,11.60
2018-07-19T05:20:31.483Z,10.83
2018-07-19T05:23:00.028Z,11.23
2018-07-19T05:25:28.503Z,11.63
2018-07-19T05:27:56.966Z,10.40
2018-07-19T05:30:25.508Z,12.10
2018-07-19T05:32:54.016Z,11.77
2018-07-19T05:35:22.610Z,10.93
2018-07-19T05:37:51.054Z,10.97
2018-07-19T05:40:19.649Z,11.37
2018-07-19T05:42:48.258Z,11.40
2018-07-19T05:45:16.733Z,10.50
2018-07-19T05:47:45.268Z,9.37
2018-07-19T05:50:13.798Z,9.93
2018-07-19T05:52:42.470Z,11.23
2018-07-19T05:55:10.947Z,10.30
2018-07-19T05:57:39.378Z,9.97
2018-07-19T06:00:07.852Z,9.97
2018-07-19T06:02:36.346Z,9.17
2018-07-19T06:05:05.004Z,9.70
2018-07-19T06:07:33.924Z,9.00
2018-07-19T06:10:02.453Z,7.50
2018-07-19T06:12:30.904Z,7.73
2018-07-19T06:14:59.359Z,6.53
2018-07-19T06:17:27.941Z,6.17
2018-07-19T06:19:56.381Z,7.00
2018-07-19T06:22:24.825Z,5.70
2018-07-19T06:24:53.258Z,6.17
2018-07-19T06:27:21.753Z,5.30
2018-07-19T06:29:50.292Z,5.60
2018-07-19T06:32:18.721Z,5.87
2018-07-19T06:34:47.345Z,7.27
2018-07-19T06:37:15.889Z,6.53
2018-07-19T06:39:44.727Z,6.50
2018-07-19T06:42:13.336Z,6.50
2018-07-19T06:44:41.888Z,4.90
2018-07-19T06:47:10.816Z,4.93
2018-07-19T06:49:40.638Z,5.23
2018-07-19T06:52:09.701Z,5.80
2018-07-19T06:54:39.713Z,5.57
2018-07-19T06:57:08.713Z,4.27
2018-07-19T06:59:37.516Z,4.90
2018-07-19T07:02:14.275Z,4.17
2018-07-19T07:04:53.611Z,3.43
2018-07-19T07:07:22.523Z,2.90
2018-07-19T07:09:50.997Z,3.10
2018-07-19T07:12:26.566Z,3.00
2018-07-19T07:15:01.729Z,2.83
2018-07-19T07:17:32.419Z,2.93
2018-07-19T07:20:01.318Z,3.03
2018-07-19T07:22:30.202Z,2.30
2018-07-19T07:24:58.929Z,2.20
2018-07-19T07:27:28.754Z,2.57
2018-07-19T07:29:57.240Z,2.90
2018-07-19T07:32:27.815Z,2.70
2018-07-19T07:35:02.778Z,2.53
2018-07-19T07:37:31.375Z,2.47
2018-07-19T07:40:00.948Z,2.60
2018-07-19T07:42:32.617Z,3.60
2018-07-19T07:45:01.997Z,2.30
2018-07-19T07:47:30.717Z,2.80
2018-07-19T07:49:59.161Z,2.33
2018-07-19T07:52:27.584Z,2.73
2018-07-19T07:54:56.268Z,2.50
2018-07-19T07:57:24.861Z,2.60
2018-07-19T07:59:53.997Z,2.70
2018-07-19T08:02:22.513Z,2.83
2018-07-19T08:04:51.075Z,3.10
2018-07-19T08:07:20.148Z,3.17
2018-07-19T08:09:48.614Z,3.00
2018-07-19T08:12:17.004Z,2.80
2018-07-19T08:14:45.571Z,3.00
2018-07-19T08:17:13.964Z,2.70
2018-07-19T08:19:42.844Z,2.17
2018-07-19T08:22:11.380Z,2.70
2018-07-19T08:24:40.056Z,2.03
2018-07-19T08:27:08.349Z,2.03
2018-07-19T08:29:36.705Z,2.23
2018-07-19T08:32:05.114Z,2.53
2018-07-19T08:34:34.723Z,2.33
2018-07-19T08:37:03.152Z,2.17
2018-07-19T08:39:32.286Z,2.40
2018-07-19T08:42:03.663Z,2.43
2018-07-19T08:44:32.126Z,2.50
2018-07-19T08:47:00.557Z,2.30
2018-07-19T08:49:28.981Z,2.50
2018-07-19T08:51:57.859Z,2.30
2018-07-19T08:54:27.094Z,2.07
2018-07-19T08:56:56.529Z,2.10
2018-07-19T08:59:25.010Z,2.33
2018-07-19T09:01:53.480Z,2.10
2018-07-19T09:04:22.029Z,2.20
2018-07-19T09:06:50.957Z,2.17
2018-07-19T09:09:19.360Z,2.50
2018-07-19T09:11:47.780Z,2.20
2018-07-19T09:14:16.457Z,2.00
2018-07-19T09:16:44.920Z,2.10
2018-07-19T09:19:13.728Z,2.00
2018-07-19T09:21:42.259Z,1.70
2018-07-19T09:24:10.772Z,1.87
2018-07-19T09:26:39.230Z,2.10
2018-07-19T09:29:07.860Z,2.07
2018-07-19T09:31:36.444Z,1.90
2018-07-19T09:34:04.839Z,1.70
2018-07-19T09:36:33.260Z,2.23
2018-07-19T09:39:02.200Z,1.53
2018-07-19T09:41:30.683Z,1.60
2018-07-19T09:43:59.256Z,1.70
2018-07-19T09:46:27.929Z,2.23
2018-07-19T09:48:56.615Z,1.77
2018-07-19T09:51:25.254Z,1.90
2018-07-19T09:53:54.004Z,2.23
2018-07-19T09:56:22.664Z,1.60
2018-07-19T09:58:51.585Z,2.07
2018-07-19T10:01:21.227Z,1.60
2018-07-19T10:03:51.416Z,1.80
2018-07-19T10:06:20.950Z,1.83
2018-07-19T10:08:49.908Z,1.70
2018-07-19T10:11:18.695Z,2.00
2018-07-19T10:13:48.201Z,1.93
2018-07-19T10:16:16.513Z,1.80
2018-07-19T10:18:45.093Z,1.97
2018-07-19T10:21:13.768Z,1.80
2018-07-19T10:23:42.251Z,1.73
2018-07-19T10:26:11.041Z,1.80
2018-07-19T10:28:40.573Z,1.70
2018-07-19T10:31:09.025Z,1.50
2018-07-19T10:33:37.645Z,1.70
2018-07-19T10:36:06.852Z,1.90
2018-07-19T10:38:36.025Z,1.93
2018-07-19T10:41:04.717Z,1.70
2018-07-19T10:43:33.276Z,1.33
2018-07-19T10:46:01.802Z,1.73
2018-07-19T10:48:30.536Z,1.40
2018-07-19T10:50:59.041Z,1.30
2018-07-19T10:53:28.116Z,1.80
2018-07-19T10:55:56.616Z,1.50
2018-07-19T10:58:25.380Z,1.63
2018-07-19T11:00:53.857Z,1.53
2018-07-19T11:03:22.936Z,1.53
2018-07-19T11:05:51.480Z,1.50
2018-07-19T11:08:20.349Z,1.50
2018-07-19T11:10:49.422Z,1.40
2018-07-19T11:13:18.325Z,1.60
2018-07-19T11:15:46.912Z,1.70
2018-07-19T11:18:15.476Z,1.40
2018-07-19T11:20:44.119Z,1.90
2018-07-19T11:23:12.811Z,1.40
2018-07-19T11:25:42.073Z,1.50
2018-07-19T11:28:11.377Z,1.70
2018-07-19T11:30:40.289Z,1.70
2018-07-19T11:33:09.132Z,1.30
2018-07-19T11:35:38.036Z,1.60
2018-07-19T11:38:06.614Z,1.90
2018-07-19T11:40:36.193Z,1.50
2018-07-19T11:43:05.004Z,1.90
2018-07-19T11:45:33.559Z,1.70
2018-07-19T11:48:02.746Z,1.73
2018-07-19T11:50:31.488Z,1.60
2018-07-19T11:53:00.209Z,1.77
2018-07-19T11:55:28.579Z,1.83
2018-07-19T11:57:57.443Z,1.83
2018-07-19T12:00:26.262Z,1.77
2018-07-19T12:02:54.855Z,2.00
2018-07-19T12:05:23.487Z,2.10
2018-07-19T12:07:52.171Z,1.90
2018-07-19T12:10:20.656Z,1.93
2018-07-19T12:12:49.592Z,1.80
2018-07-19T12:15:18.433Z,2.10
2018-07-19T12:17:47.285Z,1.87
2018-07-19T12:20:15.971Z,2.00
2018-07-19T12:22:44.814Z,2.23
2018-07-19T12:25:13.828Z,1.97
2018-07-19T12:27:42.532Z,1.63
2018-07-19T12:30:11.241Z,1.90
2018-07-19T12:32:39.856Z,2.00
2018-07-19T12:35:11.036Z,1.93
2018-07-19T12:37:39.964Z,1.73
2018-07-19T12:40:08.606Z,1.90
2018-07-19T12:42:37.976Z,1.63
2018-07-19T12:45:06.476Z,1.80
2018-07-19T12:47:35.128Z,1.40
2018-07-19T12:50:04.353Z,1.50
2018-07-19T12:52:33.804Z,1.40
2018-07-19T12:55:02.436Z,1.30
2018-07-19T12:57:31.736Z,1.20
2018-07-19T13:00:00.654Z,1.10
2018-07-19T13:02:31.081Z,1.20
2018-07-19T13:04:59.953Z,1.00
2018-07-19T13:07:28.517Z,1.20
2018-07-19T13:10:04.588Z,1.00
2018-07-19T13:12:33.952Z,1.10
2018-07-19T13:15:04.642Z,0.97
2018-07-19T13:17:34.178Z,1.10
2018-07-19T13:20:03.001Z,0.90
2018-07-19T13:22:32.293Z,1.10
2018-07-19T13:25:01.572Z,1.10
2018-07-19T13:27:30.209Z,0.97
2018-07-19T13:29:58.700Z,1.00
2018-07-19T13:32:27.781Z,1.00
2018-07-19T13:34:56.954Z,0.63
2018-07-19T13:37:25.797Z,0.83
2018-07-19T13:39:54.365Z,0.70
2018-07-19T13:42:23.328Z,0.90
2018-07-19T13:44:52.287Z,0.73
2018-07-19T13:47:21.231Z,0.77
2018-07-19T13:49:50.328Z,0.70
2018-07-19T13:53:24.603Z,1.10
2018-07-19T13:55:54.037Z,0.77
2018-07-19T13:58:22.896Z,0.93
2018-07-19T14:00:51.844Z,0.77
2018-07-19T14:03:20.596Z,0.80
2018-07-19T14:05:49.616Z,0.70
2018-07-19T14:08:18.431Z,0.80
2018-07-19T14:10:47.652Z,0.70
2018-07-19T14:13:16.941Z,0.70
2018-07-19T14:15:45.919Z,1.00
2018-07-19T14:18:15.044Z,0.70
2018-07-19T14:20:43.721Z,0.83
2018-07-19T14:23:12.932Z,0.90
2018-07-19T14:25:42.102Z,0.90
2018-07-19T14:28:11.028Z,0.70
2018-07-19T14:30:40.759Z,0.80
2018-07-19T14:33:10.135Z,0.97
2018-07-19T14:35:39.915Z,0.90
2018-07-19T14:38:09.096Z,0.90
2018-07-19T14:40:38.397Z,0.90
2018-07-19T14:43:07.226Z,0.90
2018-07-19T14:45:36.318Z,1.00
2018-07-19T14:48:05.489Z,0.90
2018-07-19T14:50:34.331Z,1.00
2018-07-19T14:53:03.036Z,0.80
2018-07-19T14:55:31.849Z,1.00
2018-07-19T14:58:00.709Z,1.07
2018-07-19T15:00:29.893Z,0.87
2018-07-19T15:02:58.792Z,1.00
2018-07-19T15:05:27.928Z,1.00
2018-07-19T15:07:56.930Z,1.00
2018-07-19T15:10:25.737Z,1.17
2018-07-19T15:12:54.788Z,1.00
2018-07-19T15:15:24.375Z,1.00
2018-07-19T15:17:53.391Z,1.10
2018-07-19T15:20:22.186Z,1.10
2018-07-19T15:22:51.068Z,1.00
2018-07-19T15:25:20.112Z,1.07
2018-07-19T15:27:48.869Z,1.10
2018-07-19T15:30:17.659Z,1.10
2018-07-19T15:32:46.341Z,1.27
2018-07-19T15:35:15.664Z,1.17
2018-07-19T15:37:45.059Z,1.33
2018-07-19T15:40:13.828Z,1.50
2018-07-19T15:42:42.508Z,1.40
2018-07-19T15:45:10.908Z,1.43
2018-07-19T15:47:39.517Z,1.40
2018-07-19T15:50:09.793Z,1.10
2018-07-19T15:52:38.465Z,1.00
2018-07-19T15:55:07.282Z,1.00
2018-07-19T15:57:35.833Z,1.30
2018-07-19T16:00:05.481Z,1.20
2018-07-19T16:02:34.124Z,1.10
2018-07-19T16:05:03.024Z,1.40
2018-07-19T16:07:31.987Z,1.30
2018-07-19T16:10:01.425Z,1.50
2018-07-19T16:12:30.150Z,1.10
2018-07-19T16:14:58.799Z,1.20
2018-07-19T16:17:28.112Z,1.10
2018-07-19T16:19:57.316Z,1.27
2018-07-19T16:22:26.413Z,1.20
2018-07-19T16:24:55.529Z,1.40
2018-07-19T16:27:24.703Z,1.20
2018-07-19T16:29:53.567Z,1.10
2018-07-19T16:32:22.679Z,1.20
2018-07-19T16:34:51.654Z,1.47
2018-07-19T16:37:20.976Z,1.30
2018-07-19T16:39:50.525Z,1.27
2018-07-19T16:42:19.567Z,1.10
2018-07-19T16:44:48.598Z,1.30
2018-07-19T16:47:17.660Z,1.13
2018-07-19T16:49:46.488Z,1.20
2018-07-19T16:52:15.264Z,1.30
2018-07-19T16:54:44.420Z,1.27
2018-07-19T16:57:13.491Z,1.20
2018-07-19T16:59:42.412Z,1.30
2018-07-19T17:02:11.158Z,1.20
2018-07-19T17:04:39.688Z,0.90
2018-07-19T17:07:08.086Z,1.10
2018-07-19T17:09:36.572Z,2.10
2018-07-19T17:12:05.097Z,1.40
2018-07-19T17:14:33.521Z,1.30
2018-07-19T17:17:01.890Z,1.43
2018-07-19T17:19:30.264Z,1.03
2018-07-19T17:21:58.900Z,1.07
2018-07-19T17:24:27.975Z,0.93
2018-07-19T17:26:56.399Z,1.30
2018-07-19T17:29:24.913Z,1.10
2018-07-19T17:31:53.436Z,1.23
2018-07-19T17:34:22.138Z,1.10
2018-07-19T17:36:50.595Z,1.10
2018-07-19T17:39:19.056Z,1.20
2018-07-19T17:41:47.431Z,1.10
2018-07-19T17:44:15.797Z,1.13
2018-07-19T17:46:44.166Z,1.17
2018-07-19T17:49:12.576Z,1.30
2018-07-19T17:51:40.954Z,1.40
2018-07-19T17:54:09.428Z,1.27
2018-07-19T17:56:38.127Z,1.30
2018-07-19T17:59:06.575Z,1.60
2018-07-19T18:01:34.952Z,1.03
2018-07-19T18:04:03.316Z,1.50
2018-07-19T18:06:31.747Z,1.00
2018-07-19T18:09:00.097Z,1.30
2018-07-19T18:11:28.697Z,1.27
2018-07-19T18:13:57.129Z,1.30
2018-07-19T18:16:25.569Z,1.33
2018-07-19T18:18:53.948Z,1.53
2018-07-19T18:21:22.353Z,1.50
2018-07-19T18:23:50.785Z,1.50
2018-07-19T18:26:19.223Z,1.30
2018-07-19T18:28:47.816Z,1.53
2018-07-19T18:31:16.248Z,1.60
2018-07-19T18:33:44.666Z,1.40
2018-07-19T18:36:13.099Z,1.57
2018-07-19T18:38:41.507Z,1.73
2018-07-19T18:41:09.940Z,1.63
2018-07-19T18:43:38.348Z,1.80
2018-07-19T18:46:06.819Z,1.80
2018-07-19T18:48:35.194Z,1.83
2018-07-19T18:51:04.023Z,1.90
2018-07-19T18:53:32.540Z,1.83
2018-07-19T18:56:00.960Z,2.23
2018-07-19T18:58:29.342Z,2.00
2018-07-19T19:00:57.768Z,2.17
2018-07-19T19:03:26.161Z,2.07
2018-07-19T19:05:54.588Z,2.10
2018-07-19T19:08:22.955Z,2.33
2018-07-19T19:10:51.384Z,2.37
2018-07-19T19:13:19.813Z,2.10
2018-07-19T19:15:48.310Z,2.03
2018-07-19T19:18:16.754Z,2.00
2018-07-19T19:20:45.252Z,2.20
2018-07-19T19:23:13.669Z,2.07
2018-07-19T19:25:42.440Z,2.20
2018-07-19T19:28:10.889Z,2.20
2018-07-19T19:30:39.476Z,2.13
2018-07-19T19:33:08.364Z,2.20
2018-07-19T19:35:36.933Z,2.30
2018-07-19T19:38:05.341Z,2.63
2018-07-19T19:40:33.764Z,2.30
2018-07-19T19:43:02.132Z,5.90
2018-07-19T19:45:30.591Z,4.70
2018-07-19T19:47:59.147Z,4.60
2018-07-19T19:50:27.580Z,4.90
2018-07-19T19:53:02.516Z,4.00
2018-07-19T19:55:31.289Z,3.83
2018-07-19T19:57:59.936Z,3.17
2018-07-19T20:00:28.352Z,3.10
2018-07-19T20:02:56.970Z,3.03
2018-07-19T20:05:25.429Z,3.10
2018-07-19T20:07:53.834Z,3.30
2018-07-19T20:10:22.476Z,3.03
2018-07-19T20:12:50.957Z,3.27
2018-07-19T20:15:26.570Z,3.40
2018-07-19T20:17:55.404Z,3.30
2018-07-19T20:20:23.977Z,3.57
2018-07-19T20:22:52.417Z,8.13
2018-07-19T20:25:20.873Z,7.93
2018-07-19T20:27:49.349Z,5.10
2018-07-19T20:30:17.744Z,5.43
2018-07-19T20:32:46.175Z,5.47
2018-07-19T20:35:14.597Z,4.60
2018-07-19T20:37:43.050Z,4.53
2018-07-19T20:40:12.902Z,5.10
2018-07-19T20:42:41.511Z,3.93
2018-07-19T20:45:10.362Z,3.67
2018-07-19T20:47:39.515Z,3.80
2018-07-19T20:50:08.695Z,3.97
2018-07-19T20:52:37.222Z,3.73
2018-07-19T20:55:05.842Z,3.50
2018-07-19T20:57:34.971Z,3.13
2018-07-19T21:00:04.923Z,3.73
2018-07-19T21:02:34.030Z,3.43
2018-07-19T21:05:02.661Z,3.20
2018-07-19T21:07:31.171Z,3.13
2018-07-19T21:09:59.615Z,2.90
2018-07-19T21:12:28.228Z,3.10
2018-07-19T21:14:56.617Z,3.10
2018-07-19T21:17:25.981Z,3.20
2018-07-19T21:19:54.412Z,3.53
2018-07-19T21:22:26.928Z,3.50
2018-07-19T21:25:01.043Z,2.90
2018-07-19T21:27:29.614Z,3.73
2018-07-19T21:29:58.048Z,3.20
2018-07-19T21:32:26.483Z,3.60
2018-07-19T21:34:54.945Z,3.33
2018-07-19T21:37:23.493Z,3.43
2018-07-19T21:39:52.409Z,3.37
2018-07-19T21:42:20.779Z,3.80
2018-07-19T21:44:49.505Z,4.00
2018-07-19T21:47:18.484Z,3.83
2018-07-19T21:49:47.365Z,4.10
2018-07-19T21:52:15.785Z,3.80
2018-07-19T21:54:44.260Z,4.53
2018-07-19T21:57:12.672Z,3.23
2018-07-19T21:59:41.336Z,3.70
2018-07-19T22:02:12.497Z,3.57
2018-07-19T22:04:41.091Z,4.03
2018-07-19T22:07:09.965Z,4.17
2018-07-19T22:09:38.664Z,3.87
2018-07-19T22:12:06.990Z,3.93
2018-07-19T22:14:35.496Z,3.57
2018-07-19T22:17:03.976Z,3.53
2018-07-19T22:19:32.344Z,3.47
2018-07-19T22:22:00.704Z,3.70
2018-07-19T22:24:29.080Z,3.30
2018-07-19T22:26:58.748Z,3.70
2018-07-19T22:29:27.137Z,3.30
2018-07-19T22:31:55.258Z,4.43
2018-07-19T22:34:23.679Z,4.37
2018-07-19T22:36:52.031Z,4.10
2018-07-19T22:39:20.405Z,3.47
2018-07-19T22:41:48.763Z,3.53
2018-07-19T22:44:17.164Z,4.67
2018-07-19T22:46:45.629Z,3.97
2018-07-19T22:49:14.083Z,4.57
2018-07-19T22:51:42.452Z,4.27
2018-07-19T22:54:10.826Z,4.77
2018-07-19T22:56:39.193Z,5.13
2018-07-19T22:59:07.595Z,5.27
2018-07-19T23:01:36.024Z,4.83
2018-07-19T23:04:04.450Z,4.80
2018-07-19T23:06:33.280Z,5.13
2018-07-19T23:09:01.679Z,5.00
2018-07-19T23:11:30.118Z,4.67
2018-07-19T23:13:58.500Z,4.50
2018-07-19T23:16:26.856Z,4.50
2018-07-19T23:18:55.899Z,4.97
2018-07-19T23:21:24.252Z,4.93
2018-07-19T23:23:52.629Z,4.93
2018-07-19T23:26:20.988Z,5.00
2018-07-19T23:28:49.395Z,4.27
2018-07-19T23:31:18.028Z,4.90
2018-07-19T23:33:46.422Z,4.40
2018-07-19T23:36:32.579Z,4.80
2018-07-19T23:39:12.244Z,4.30
2018-07-19T23:41:46.604Z,4.40
2018-07-19T23:44:20.116Z,4.30
2018-07-19T23:46:52.568Z,3.93
2018-07-19T23:49:20.968Z,4.00
2018-07-19T23:51:50.121Z,3.60
2018-07-19T23:54:19.048Z,4.07
2018-07-19T23:56:47.565Z,3.70
2018-07-19T23:59:15.983Z,3.83
